Leonardo Viera

Scout - Wanderers
3 Dez 2028
Sonntag
Verarbeitung

Persönlichkeit

Anpassungsfähigkeit (13) Ehrgeiz (19) Kontroverse (1) Loyalität (16) Druck (9) Professionalität (20) Fairness (3) Temperament (5)

Profil

Trainerstil Demokratisch
Lizenz Kontinentale Pro
Entschlossenheit 12
Menschenführung 12
Motivation 4
Disziplin 11
Arbeitszufriedenheit
100%
Ermüdung
0%
Rolle Scout
Gehalt 41.1K p/W
Vertrag 14.03.2029

Leistung

Verhalten Gut
Trainingseffektivität
41%
Spielerentwicklung
35%
Verletzungsprävention
30%
Taktische Umsetzung
50%

Letzte Ereignisse

Nahm an einer Scouting-Besprechung teil jetzt
Empfahl ein Transferziel jetzt
Empfahl ein Transferziel jetzt
Empfahl ein Transferziel jetzt
Empfahl ein Transferziel jetzt
Empfahl ein Transferziel 7T her
Empfahl ein Transferziel 7T her
Empfahl ein Transferziel 7T her

Aktuell beobachtet

108
Spieler Verein Status Fähigkeit Vertrauen Beobachtet Zuletzt beobachtet Letzte Stimme
Andrija Bulatović Chamois Niortais Aktiv 128 / 124 40% 1 30.11.2028 -
Miguel Figueiredo Benfica Aktiv 118 / 138 40% 1 30.11.2028 -
Davinchi Getafe Aktiv 135 / 118 40% 1 30.11.2028 -
Diego Méndez Tacuarembo Aktiv 99 / 99 30% 1 / 1m 26.07.2028 -
Jerónimo Buosi Rampla Juniors Aktiv 94 / 99 30% 1 / 1m 26.07.2028 -
Ayden Heaven Portsmouth Aktiv 150 / 156 40% 5 31.05.2028 -
Kamaldeen Atiemo Wa All Stars Aktiv 100 / 114 40% 1 31.05.2028 -
Andrea Cogoni Cosenza Aktiv 110 / 106 40% 1 31.05.2028 -
Celías Ingenthron Platense Aktiv 112 / 125 40% 4 30.05.2028 -
Trey Nyoni Rotherham United Aktiv 149 / 156 40% 3 30.05.2028 -
Jorthy Mokio ADO Den Haag Aktiv 137 / 126 40% 2 30.05.2028 -
Fabián Correa Barranquilla Aktiv 84 / 99 40% 2 25.05.2028 -
Kiani Inge Groningen Aktiv 105 / 107 40% 1 25.05.2028 -
Tyler Fletcher Rotherham United Aktiv 108 / 123 40% 2 23.05.2028 -
Christos Mouzakitis Hull City Aktiv 128 / 152 40% 3 23.05.2028 -
Felipe Varela Trujillanos Aktiv 95 / 104 40% 1 23.05.2028 -
Mahmoud El Shenawy Masr El Makasa Aktiv 73 / 68 40% 1 22.05.2028 -
Andrey Ivlev Nizhniy Novgorod Aktiv 111 / 118 40% 1 22.05.2028 -
Alejandro Almaraz NK Celje Aktiv 114 / 106 40% 3 19.05.2028 -
Daniel Banjaqui Benfica Aktiv 127 / 121 40% 2 17.05.2028 -
Enzo Acosta Tacuarembo Aktiv 83 / 86 30% 1 / 1m 17.05.2028 -
Joaquín Muñoz Rampla Juniors Aktiv 91 / 94 30% 1 / 1m 17.05.2028 -
Khama Mabunda Platinum Stars Aktiv 91 / 89 40% 1 17.05.2028 -
Bernardo Lima Porto Aktiv 112 / 122 40% 1 17.05.2028 -
Kirill Kistenev Botev Vratsa Aktiv 93 / 108 40% 1 16.05.2028 -
Federico Matarán Giana Erminio Aktiv 110 / 103 40% 1 15.05.2028 -
Josh Nichols Oldham Athletic Aktiv 130 / 117 40% 2 13.05.2028 -
Abubakar Adams Aduana Stars Aktiv 84 / 103 40% 3 13.05.2028 -
Jan Bürger Northampton Town Aktiv 120 / 138 40% 2 08.05.2028 -
Nazareno Roselli Defensa y Justicia Aktiv 111 / 115 40% 4 05.05.2028 -
Amine Boukamir Charleroi Aktiv 94 / 123 40% 1 04.05.2028 -
Gael Moreno Morelia Aktiv 72 / 71 40% 4 03.05.2028 -
Nicolás Sosa La Luz Aktiv 94 / 97 30% 1 / 1m 15.03.2028 -
Juan Manuel Villalba Tigre Aktiv 113 / 119 40% 1 16.01.2028 -
Lucas Nicol Mjondalen Aktiv 86 / 80 40% 2 11.01.2028 -
Máximo Munarriz San Telmo Aktiv 99 / 106 40% 3 08.01.2028 -
Agustín Obregón River Plate Aktiv 113 / 126 40% 1 06.01.2028 -
Victor Hernandez Santa Fe Aktiv 124 / 132 40% 13 05.01.2028 -
Hugo Rojas Instituto Aktiv 106 / 117 40% 2 03.01.2028 -
Honest Ahanor Atalanta Aktiv 140 / 147 40% 4 03.01.2028 -
Tobias Mohr Farense Aktiv 117 / 117 68% 1 01.12.2027 Befürworten
Joel Ezra Enyimba Aktiv 103 / 105 40% 4 30.11.2027 -
Jonny Shore New York City Aktiv 105 / 103 40% 3 30.11.2027 -
Jan Cedilnik Chikhura Aktiv 88 / 101 40% 3 30.11.2027 -
Hosea Michael Remo Stars Aktiv 82 / 79 40% 5 27.11.2027 -
Joelson Gamarra General Caballero Aktiv 70 / 83 40% 4 25.11.2027 -
Francisco Machis Llaneros Aktiv 88 / 97 40% 7 24.11.2027 -
Gideon Manaseh Ikorodu City Aktiv 95 / 92 40% 3 24.11.2027 -
Agustín Medina Lanús Aktiv 112 / 123 40% 2 19.11.2027 -
Ivan Borges Defensores Aktiv 86 / 86 40% 5 16.11.2027 -
Onyeuche Ujunwa Ikorodu City Aktiv 81 / 88 40% 3 16.11.2027 -
Idriss Ashiru Kariobangi Sharks Aktiv 77 / 79 40% 2 14.11.2027 -
Lucas Camejo River Plate Aktiv 80 / 99 40% 4 11.11.2027 -
Halam Loboa Sevilla Aktiv 117 / 128 40% 1 11.11.2027 -
Josh Acheampong Everton Aktiv 146 / 138 40% 2 10.11.2027 -
Daniel Idoko Ikorodu City Aktiv 91 / 92 40% 2 09.11.2027 -
Luciano Posadas Central Córdoba SdE Aktiv 87 / 97 40% 2 08.11.2027 -
Timoteo Chamorro Talleres Aktiv 107 / 107 40% 1 08.11.2027 -
Colin Guske Orlando City Aktiv 91 / 103 40% 3 05.11.2027 -
Ignacio Fernández Boston River Aktiv 86 / 111 40% 2 03.11.2027 -
Toheeb Adebayo Shooting Stars Aktiv 83 / 87 40% 2 31.10.2027 -
Ignacio Ovando Rosario Central Aktiv 111 / 110 40% 1 31.10.2027 -
Kevin Otiende Nairobi United Aktiv 71 / 82 40% 2 30.10.2027 -
Ignacio Pérez Universidad Catolica Aktiv 97 / 96 40% 2 28.10.2027 -
Ángel Aguayo Sol de America Aktiv 98 / 89 40% 3 24.10.2027 -
Santiago Colidio Liepaja Aktiv 86 / 90 40% 4 21.10.2027 -
Ulises Giménez River Plate Aktiv 114 / 120 40% 1 21.10.2027 -
Alan Valdelamar Independiente Medellin Aktiv 87 / 94 40% 1 19.10.2027 -
Andres Casseres Llaneros Aktiv 68 / 67 40% 1 18.10.2027 -
Godwin Oham Warri Wolves Aktiv 84 / 87 40% 3 05.10.2027 -
Adrian Skogmar Malmo FF Aktiv 114 / 136 40% 1 04.10.2027 -
Mohamed Bolivar Barranquilla Aktiv 90 / 100 40% 2 01.10.2027 -
Issa Yusuf Shooting Stars Aktiv 87 / 103 40% 5 01.10.2027 -
Matias Siltanen Malmo FF Aktiv 122 / 130 40% 1 26.09.2027 -
Juan Camilo Córdoba Deportivo Pereira Aktiv 80 / 88 40% 1 26.09.2027 -
Esteban de Lima Tacuarembo Aktiv 95 / 103 40% 4 25.09.2027 -
Alejandro Leiva Patronato Aktiv 101 / 111 40% 1 23.09.2027 -
Nicolas Restrepo Leones Aktiv 87 / 85 40% 2 20.09.2027 -
Mohamed Moussa Koïta Mathare United Aktiv 97 / 99 40% 1 20.09.2027 -
Óscar Hinojosa Metropolitanos Aktiv 87 / 76 40% 3 18.09.2027 -
Archie Gray Southampton Aktiv 146 / 165 40% 1 08.09.2027 -
Juan Diego Perdomo Depor Aktiv 91 / 87 40% 2 06.09.2027 -
Matías Canedo Rampla Juniors Aktiv 77 / 99 40% 1 06.09.2027 -
Diego Vargas Universidad de Concepcion Aktiv 95 / 90 40% 3 04.09.2027 -
Mauro Carrizo Atlético Tucumán Aktiv 100 / 102 40% 1 03.09.2027 -
David Damboama El-Kanemi Warriors Aktiv 88 / 106 40% 1 29.08.2027 -
Chibueze Oputa Rangers International Aktiv 84 / 85 40% 1 23.08.2027 -
Mpho Khethang FC Diarra Aktiv 79 / 75 40% 1 22.08.2027 -
Matías Magdaleno Estudiantes Aktiv 105 / 105 40% 1 21.08.2027 -
Nicolás Blanco San Lorenzo Aktiv 104 / 103 40% 1 17.08.2027 -
Sascha Britschgi AC Milan Aktiv 131 / 131 40% 1 08.08.2027 -
Gady Beyuku Blackburn Rovers Aktiv 124 / 116 40% 1 07.08.2027 -
Charlie Gray Fleetwood Town Aktiv 94 / 90 40% 1 07.08.2027 -
Jenson Jones Walsall Aktiv 97 / 96 40% 2 06.08.2027 -
Eliás Montiel Borussia Dortmund Aktiv 145 / 148 40% 1 05.08.2027 -
Chari Giwa US Bougouni Aktiv 69 / 96 40% 1 05.08.2027 -
Riley Owen Stevenage Aktiv 97 / 118 40% 1 04.08.2027 -
Joe Johnson Luton Town Aktiv 101 / 112 40% 1 03.08.2027 -
Matías Espíndola Deportivo Maldonado Aktiv 116 / 119 42% 1 / 1m 28.07.2027 -
Rodrigo Pastorini Artigas Aktiv 95 / 93 72% 1 12.07.2027 Befürworten
Juan Moreno La Luz Aktiv 112 / 125 40% 1 05.07.2027 -
Francisco Salerno Defensores Unidos Aktiv 116 / 117 40% 1 05.07.2027 -
Facundo Barreto Cerrito Aktiv 99 / 88 72% 1 06.06.2027 Befürworten
Sampson Dweh Mallorca Aktiv 133 / 134 66% 1 01.06.2027 Befürworten
Diego Segovia Independiente Aktiv 116 / 116 30% 1 / 1m 19.05.2027 -
Gastón Ramírez Aktiv 113 / 113 30% 1 / 1m 19.05.2027 -
Lucas Rodríguez Albion Aktiv 128 / 128 52% 1 / 1m 17.03.2027 -
Leandro Méndez Colon Aktiv 110 / 101 69% 1 21.12.2026 Befürworten